Time;durP1;ratioP1;P1;durP2;ratioP2;P2;SDS_P1;SDS_P2;PMS_P1;PMS_P2;Temp;Humidity;BMP_temperature;BMP_pressure;BME280_temperature;BME280_humidity;BME280_pressure;Samples;Min_cycle;Max_cycle;Signal;HPM_P1;HPM_P2
2023/10/14 00:02:32;;;;;;;12.48;4.95;;;19.20;99.90;;;;;;5028783;28;20184;-72
2023/10/14 00:04:54;;;;;;;9.27;5.18;;;19.20;99.90;;;;;;5019030;28;20247;-69
2023/10/14 00:07:25;;;;;;;13.35;4.63;;;19.30;99.90;;;;;;5030148;28;20223;-72
2023/10/14 00:09:56;;;;;;;7.05;4.60;;;19.20;99.90;;;;;;5003145;28;20237;-72
2023/10/14 00:12:24;;;;;;;9.45;5.28;;;19.20;99.90;;;;;;5027554;28;20235;-70
2023/10/14 00:14:53;;;;;;;7.15;4.47;;;19.10;99.90;;;;;;5031340;28;20192;-70
2023/10/14 00:17:21;;;;;;;14.00;4.85;;;19.20;99.90;;;;;;5026299;28;20193;-70
2023/10/14 00:19:53;;;;;;;8.43;4.95;;;19.10;99.90;;;;;;5025551;28;20200;-68
2023/10/14 00:22:20;;;;;;;8.35;5.30;;;19.20;99.90;;;;;;5031615;28;20200;-70
2023/10/14 00:24:52;;;;;;;13.20;4.93;;;19.20;99.90;;;;;;5031035;28;20208;-70
2023/10/14 00:27:21;;;;;;;9.75;5.30;;;19.20;99.90;;;;;;5029065;28;20682;-72
2023/10/14 00:29:49;;;;;;;11.35;5.25;;;19.00;99.90;;;;;;5028798;28;20188;-75
2023/10/14 00:32:16;;;;;;;16.20;5.70;;;19.00;99.90;;;;;;5031298;28;20274;-71
2023/10/14 00:34:43;;;;;;;11.82;5.82;;;19.00;99.90;;;;;;5028784;28;20610;-68
2023/10/14 00:37:13;;;;;;;7.70;4.85;;;19.10;99.90;;;;;;5022329;28;20201;-70
2023/10/14 00:39:40;;;;;;;8.23;4.85;;;19.00;99.90;;;;;;5028677;28;20845;-70
2023/10/14 00:42:08;;;;;;;10.18;5.18;;;19.10;99.90;;;;;;5029630;28;20535;-68
2023/10/14 00:44:38;;;;;;;12.50;4.93;;;19.10;99.90;;;;;;5029185;28;20204;-68
2023/10/14 00:47:08;;;;;;;10.95;5.45;;;19.20;99.90;;;;;;5013471;28;20216;-68
2023/10/14 00:49:35;;;;;;;12.93;6.00;;;19.00;99.90;;;;;;5025016;28;20534;-68
2023/10/14 00:52:07;;;;;;;8.20;4.75;;;18.90;99.90;;;;;;5026281;28;20185;-69
2023/10/14 00:59:50;;;;;;;9.25;5.32;;;18.70;99.90;;;;;;5029189;28;20193;-67
2023/10/14 01:02:30;;;;;;;15.30;5.43;;;18.60;99.90;;;;;;5023174;28;20204;-69
2023/10/14 01:05:06;;;;;;;8.60;5.07;;;18.60;99.90;;;;;;4998494;28;20206;-68
2023/10/14 01:07:33;;;;;;;6.78;4.93;;;18.70;99.90;;;;;;5028593;28;20643;-70
2023/10/14 01:10:01;;;;;;;10.55;5.28;;;18.70;99.90;;;;;;5020527;28;20264;-69
2023/10/14 01:12:39;;;;;;;9.45;5.00;;;18.70;99.90;;;;;;5029113;28;20749;-69
2023/10/14 01:15:17;;;;;;;11.25;5.15;;;18.50;99.90;;;;;;5026804;28;20180;-70
2023/10/14 01:17:45;;;;;;;7.30;4.53;;;18.40;99.90;;;;;;5005822;28;20196;-68
2023/10/14 01:22:43;;;;;;;8.73;4.30;;;18.40;99.90;;;;;;5027638;28;20192;-67
2023/10/14 01:25:14;;;;;;;6.38;4.18;;;18.40;99.90;;;;;;5020784;28;20563;-68
2023/10/14 01:27:45;;;;;;;9.23;4.57;;;18.50;99.90;;;;;;5025578;28;20200;-67
2023/10/14 01:30:39;;;;;;;10.02;4.03;;;18.40;99.90;;;;;;5027724;28;20598;-72
2023/10/14 01:33:36;;;;;;;10.95;4.30;;;18.50;99.90;;;;;;5026578;28;20208;-69
2023/10/14 01:35:54;;;;;;;6.05;3.42;;;18.60;99.90;;;;;;5023698;28;20951;-72
2023/10/14 01:38:24;;;;;;;4.28;2.13;;;18.60;99.90;;;;;;5010926;28;20251;-73
2023/10/14 01:40:52;;;;;;;2.65;1.05;;;18.00;99.90;;;;;;5025424;28;20232;-72
2023/10/14 01:43:24;;;;;;;2.47;1.73;;;17.30;99.90;;;;;;5009564;28;20229;-68
2023/10/14 01:48:22;;;;;;;2.65;1.80;;;16.70;99.90;;;;;;5027251;28;20216;-70
2023/10/14 01:50:54;;;;;;;3.38;1.70;;;16.80;99.90;;;;;;5024648;28;20201;-70
2023/10/14 01:53:31;;;;;;;4.50;0.90;;;16.70;99.90;;;;;;5027540;28;20696;-70
2023/10/14 01:56:01;;;;;;;2.90;1.35;;;16.60;99.90;;;;;;5019927;28;20187;-69
2023/10/14 01:58:32;;;;;;;1.65;1.10;;;16.20;99.90;;;;;;5025864;28;20224;-68
2023/10/14 02:05:02;;;;;;;2.25;1.52;;;15.80;99.90;;;;;;5026098;28;20230;-69
2023/10/14 02:07:30;;;;;;;3.22;1.92;;;15.90;99.90;;;;;;5015631;28;20221;-69
2023/10/14 02:09:57;;;;;;;1.38;0.90;;;16.20;99.90;;;;;;5020245;28;20234;-69
2023/10/14 02:12:25;;;;;;;1.02;0.93;;;16.40;99.90;;;;;;5024234;28;20679;-69
2023/10/14 02:14:57;;;;;;;4.65;1.88;;;16.30;99.90;;;;;;5024914;28;20203;-69
2023/10/14 02:17:28;;;;;;;3.42;1.17;;;16.40;99.90;;;;;;5011688;28;20200;-69
2023/10/14 02:20:05;;;;;;;4.18;1.80;;;16.50;99.90;;;;;;5027109;28;20196;-69
2023/10/14 02:22:32;;;;;;;1.42;1.05;;;16.50;99.90;;;;;;5026377;28;20199;-70
2023/10/14 02:25:02;;;;;;;2.55;1.50;;;16.30;99.90;;;;;;5024583;28;20230;-70
2023/10/14 02:27:30;;;;;;;6.32;1.65;;;16.30;99.90;;;;;;5021030;28;20665;-76
2023/10/14 02:29:58;;;;;;;3.35;1.58;;;16.40;99.90;;;;;;5023552;28;20206;-69
2023/10/14 02:32:26;;;;;;;3.10;2.25;;;16.70;99.90;;;;;;5026345;28;20192;-70
2023/10/14 02:34:54;;;;;;;5.30;3.22;;;16.70;99.90;;;;;;5023047;28;20283;-69
2023/10/14 02:37:21;;;;;;;6.18;3.10;;;16.60;99.90;;;;;;5009011;28;20539;-70
2023/10/14 02:39:50;;;;;;;6.60;4.68;;;16.70;99.90;;;;;;5025359;28;20196;-69
2023/10/14 02:42:19;;;;;;;3.78;2.00;;;16.50;99.90;;;;;;5006813;28;20201;-69
2023/10/14 02:44:52;;;;;;;6.55;4.35;;;16.30;99.90;;;;;;5024814;28;20200;-69
2023/10/14 02:47:21;;;;;;;9.77;5.85;;;16.30;99.90;;;;;;5026158;28;20203;-71
2023/10/14 02:52:38;;;;;;;9.68;6.72;;;16.30;99.90;;;;;;5016719;28;20204;-70
2023/10/14 02:55:22;;;;;;;13.70;8.38;;;16.60;99.90;;;;;;5026006;28;20228;-71
2023/10/14 02:57:49;;;;;;;14.23;9.07;;;16.60;99.90;;;;;;5010773;28;20200;-73
2023/10/14 03:00:38;;;;;;;11.23;7.78;;;16.80;99.90;;;;;;5020836;28;20193;-72
2023/10/14 03:03:09;;;;;;;12.60;7.93;;;16.80;99.90;;;;;;5022241;28;20193;-71
2023/10/14 03:05:51;;;;;;;9.40;5.53;;;17.00;99.90;;;;;;5020895;28;20693;-70
2023/10/14 03:08:21;;;;;;;5.38;3.65;;;17.00;99.90;;;;;;5024242;28;20236;-70
2023/10/14 03:10:59;;;;;;;7.07;4.00;;;16.80;99.90;;;;;;5025919;28;20235;-69
2023/10/14 03:13:29;;;;;;;5.95;3.90;;;16.80;99.90;;;;;;5025211;28;20192;-69
2023/10/14 03:15:57;;;;;;;4.63;3.72;;;16.80;99.90;;;;;;5040991;28;20552;-69
2023/10/14 03:18:37;;;;;;;1.55;1.20;;;16.90;99.90;;;;;;5027953;28;20200;-68
2023/10/14 03:21:09;;;;;;;2.38;1.60;;;16.90;99.90;;;;;;5026464;28;20226;-68
2023/10/14 03:23:38;;;;;;;2.45;1.50;;;16.70;99.90;;;;;;5025105;28;20200;-68
2023/10/14 03:26:12;;;;;;;4.47;2.50;;;16.30;99.90;;;;;;5026196;28;20192;-69
2023/10/14 03:28:44;;;;;;;1.88;1.10;;;16.20;99.90;;;;;;5022538;28;20218;-71
2023/10/14 03:31:16;;;;;;;2.28;1.17;;;16.30;99.90;;;;;;5026418;28;20247;-80
2023/10/14 03:33:44;;;;;;;4.78;2.28;;;16.20;99.90;;;;;;5029630;28;20200;-68
2023/10/14 03:36:22;;;;;;;7.88;2.85;;;15.90;99.90;;;;;;5022742;28;20727;-69
2023/10/14 03:38:56;;;;;;;2.33;1.73;;;16.00;99.90;;;;;;5015816;28;20215;-69
2023/10/14 03:41:28;;;;;;;7.82;3.47;;;16.30;99.90;;;;;;5009886;28;20592;-69
2023/10/14 03:46:47;;;;;;;4.75;1.70;;;16.20;99.90;;;;;;5024546;28;20661;-69
2023/10/14 03:49:20;;;;;;;2.97;2.15;;;16.40;99.90;;;;;;5024024;28;20212;-70
2023/10/14 03:51:50;;;;;;;5.38;2.13;;;16.00;99.90;;;;;;5022794;28;20192;-69
2023/10/14 03:54:23;;;;;;;4.35;1.75;;;15.80;99.90;;;;;;5023249;28;20185;-68
2023/10/14 03:56:51;;;;;;;10.70;2.20;;;15.60;99.90;;;;;;5025291;28;20243;-69
2023/10/14 03:59:22;;;;;;;3.35;1.75;;;15.60;99.90;;;;;;5025921;28;20223;-69
2023/10/14 04:01:57;;;;;;;8.10;1.95;;;15.50;99.90;;;;;;5024151;28;20484;-69
2023/10/14 04:04:27;;;;;;;3.35;1.73;;;15.20;99.90;;;;;;5023744;28;20223;-68
2023/10/14 04:07:13;;;;;;;5.90;2.15;;;15.30;99.90;;;;;;5025998;28;20295;-67
2023/10/14 04:09:56;;;;;;;5.00;2.05;;;15.30;99.90;;;;;;5024989;28;20314;-68
2023/10/14 04:12:40;;;;;;;5.03;1.15;;;15.40;99.90;;;;;;5030995;28;20196;-69
2023/10/14 04:17:46;;;;;;;6.20;2.05;;;15.40;99.90;;;;;;5029625;28;20515;-69
2023/10/14 04:20:22;;;;;;;4.40;1.25;;;15.50;99.90;;;;;;5030635;28;20188;-71
2023/10/14 04:22:53;;;;;;;6.97;1.90;;;15.60;99.90;;;;;;5030629;28;20238;-70
2023/10/14 04:25:38;;;;;;;4.70;1.55;;;15.70;99.90;;;;;;5029695;28;20197;-72
2023/10/14 04:30:44;;;;;;;4.57;1.95;;;15.70;99.90;;;;;;5022143;28;20641;-71
2023/10/14 04:38:42;;;;;;;3.20;1.55;;;16.00;99.90;;;;;;5033680;28;20346;-71
2023/10/14 04:41:23;;;;;;;9.70;2.10;;;16.10;99.90;;;;;;5028593;28;20216;-71
2023/10/14 04:44:00;;;;;;;10.68;4.03;;;16.30;99.90;;;;;;5030248;28;20200;-71
2023/10/14 04:46:45;;;;;;;9.93;3.45;;;16.00;99.90;;;;;;5031498;28;20202;-70
2023/10/14 04:49:15;;;;;;;6.72;1.90;;;15.90;99.90;;;;;;5031481;28;20567;-70
2023/10/14 04:51:45;;;;;;;5.18;2.70;;;16.20;99.90;;;;;;5014680;28;20639;-71
2023/10/14 04:54:20;;;;;;;6.30;3.25;;;15.70;99.90;;;;;;5029747;28;20192;-71
2023/10/14 04:56:48;;;;;;;7.40;2.00;;;15.70;99.90;;;;;;5026303;28;20200;-71
2023/10/14 04:59:24;;;;;;;6.63;2.83;;;15.80;99.90;;;;;;5023429;28;20764;-72
2023/10/14 05:01:52;;;;;;;8.38;3.30;;;15.60;99.90;;;;;;5025784;28;20200;-71
2023/10/14 05:04:22;;;;;;;4.97;2.72;;;15.40;99.90;;;;;;5030005;28;20200;-71
2023/10/14 05:06:52;;;;;;;5.95;1.77;;;15.10;99.90;;;;;;5024510;28;20228;-71
2023/10/14 05:09:30;;;;;;;8.05;3.42;;;15.20;99.90;;;;;;5028736;28;20268;-71
2023/10/14 05:12:00;;;;;;;5.78;1.67;;;15.10;99.90;;;;;;5027728;28;20188;-71
2023/10/14 05:14:45;;;;;;;2.47;1.67;;;15.50;99.90;;;;;;5027560;28;20685;-71
2023/10/14 05:17:16;;;;;;;3.40;1.10;;;15.40;99.90;;;;;;5031206;28;20577;-71
2023/10/14 05:19:47;;;;;;;3.55;1.52;;;15.30;99.90;;;;;;5023634;28;20195;-71
2023/10/14 05:24:48;;;;;;;3.90;1.63;;;15.10;99.90;;;;;;5026725;28;20192;-70
2023/10/14 05:27:19;;;;;;;2.85;1.85;;;15.10;99.90;;;;;;5025299;28;20691;-68
2023/10/14 05:29:51;;;;;;;3.42;1.38;;;14.90;99.90;;;;;;5014268;28;20313;-71
2023/10/14 05:32:23;;;;;;;4.50;1.67;;;15.30;99.90;;;;;;5007338;28;20192;-71
2023/10/14 05:34:52;;;;;;;4.22;1.45;;;15.30;99.90;;;;;;5029799;28;20203;-73
2023/10/14 05:37:21;;;;;;;2.95;1.05;;;14.90;99.90;;;;;;5013148;28;20189;-73
2023/10/14 05:39:54;;;;;;;3.40;1.67;;;14.90;99.90;;;;;;5029192;28;20200;-73
2023/10/14 05:42:21;;;;;;;5.90;1.63;;;14.60;99.90;;;;;;5024007;28;20231;-73
2023/10/14 05:44:57;;;;;;;2.10;1.27;;;14.40;99.90;;;;;;5029787;28;20208;-73
2023/10/14 05:47:27;;;;;;;4.70;2.13;;;14.70;99.90;;;;;;5029636;28;20208;-74
2023/10/14 05:49:54;;;;;;;6.00;1.83;;;14.50;99.90;;;;;;5011057;28;20212;-74
2023/10/14 05:52:24;;;;;;;5.25;2.22;;;14.30;99.90;;;;;;5026504;28;20697;-74
2023/10/14 05:54:51;;;;;;;4.15;1.83;;;14.30;99.90;;;;;;5024218;28;20194;-73
2023/10/14 05:57:20;;;;;;;6.13;1.33;;;14.10;99.90;;;;;;5023181;28;20193;-73
2023/10/14 05:59:48;;;;;;;3.10;1.75;;;14.40;99.90;;;;;;5021659;28;20203;-70
2023/10/14 06:02:15;;;;;;;1.52;1.17;;;14.50;99.90;;;;;;5027608;28;20709;-74
2023/10/14 06:04:42;;;;;;;3.28;1.17;;;14.90;99.90;;;;;;5026806;28;20192;-71
2023/10/14 06:07:12;;;;;;;2.88;1.50;;;15.10;99.90;;;;;;5024176;28;20220;-70
2023/10/14 06:09:45;;;;;;;3.55;1.25;;;15.10;99.90;;;;;;5027886;28;20239;-70
2023/10/14 06:12:13;;;;;;;2.97;1.33;;;15.50;99.90;;;;;;5027986;28;20224;-70
2023/10/14 06:14:45;;;;;;;1.95;1.10;;;16.00;99.90;;;;;;5027513;28;20188;-72
2023/10/14 06:17:14;;;;;;;5.32;1.60;;;15.80;99.90;;;;;;5028101;28;20199;-70
2023/10/14 06:19:42;;;;;;;3.45;1.38;;;15.60;99.90;;;;;;5020847;28;20244;-71
2023/10/14 06:22:13;;;;;;;5.97;1.40;;;15.30;99.90;;;;;;5022759;28;20208;-71
2023/10/14 06:24:42;;;;;;;2.75;1.13;;;15.10;99.90;;;;;;5022184;28;20275;-71
2023/10/14 06:27:09;;;;;;;4.40;1.60;;;15.20;99.90;;;;;;5023577;28;20196;-70
2023/10/14 06:29:37;;;;;;;5.35;2.10;;;15.10;99.90;;;;;;5022316;28;20197;-69
2023/10/14 06:32:05;;;;;;;1.77;1.20;;;15.20;99.90;;;;;;5028215;28;20625;-70
2023/10/14 06:34:49;;;;;;;3.90;1.50;;;15.50;99.90;;;;;;5020036;28;20660;-71
2023/10/14 06:37:16;;;;;;;5.60;1.92;;;15.60;99.90;;;;;;5023869;28;20694;-70
2023/10/14 06:39:44;;;;;;;5.65;1.77;;;15.80;99.90;;;;;;5024807;28;20234;-68
2023/10/14 06:42:12;;;;;;;2.97;1.30;;;15.90;99.90;;;;;;5014045;28;20193;-68
2023/10/14 06:44:45;;;;;;;4.15;2.35;;;15.70;99.90;;;;;;5028931;28;20198;-70
2023/10/14 06:47:13;;;;;;;12.00;2.88;;;15.80;99.90;;;;;;5024817;28;20246;-68
2023/10/14 06:49:43;;;;;;;7.38;3.35;;;15.50;99.90;;;;;;5026892;28;20239;-68
2023/10/14 06:52:13;;;;;;;3.08;1.33;;;15.40;99.90;;;;;;5025213;28;20199;-69
2023/10/14 06:54:41;;;;;;;7.13;2.58;;;15.40;99.90;;;;;;5028012;28;20191;-71
2023/10/14 06:57:09;;;;;;;2.53;1.27;;;15.40;99.90;;;;;;5025140;28;20193;-68
2023/10/14 06:59:37;;;;;;;10.32;2.33;;;15.20;99.90;;;;;;5029214;28;20277;-70
2023/10/14 07:02:05;;;;;;;6.68;1.42;;;15.20;99.90;;;;;;5023711;28;20203;-71
2023/10/14 07:04:37;;;;;;;9.40;1.45;;;15.10;99.90;;;;;;5026976;28;20498;-70
2023/10/14 07:07:09;;;;;;;6.97;2.20;;;15.00;99.90;;;;;;5024472;28;20315;-70
2023/10/14 07:09:39;;;;;;;4.50;1.55;;;15.20;99.90;;;;;;5024444;28;20704;-69
2023/10/14 07:12:13;;;;;;;3.67;1.52;;;15.10;99.90;;;;;;5027940;28;20270;-70
2023/10/14 07:14:41;;;;;;;4.45;1.55;;;15.60;99.90;;;;;;5027508;28;20269;-69
2023/10/14 07:17:08;;;;;;;5.38;1.48;;;15.20;99.90;;;;;;5026678;28;20267;-69
2023/10/14 07:19:35;;;;;;;7.00;1.55;;;15.60;99.90;;;;;;5023214;28;20230;-69
2023/10/14 07:22:07;;;;;;;6.75;2.58;;;15.60;99.90;;;;;;5026144;28;20199;-69
2023/10/14 07:24:35;;;;;;;2.53;1.52;;;15.30;99.90;;;;;;5026052;28;20215;-72
2023/10/14 07:27:06;;;;;;;6.40;1.88;;;15.20;99.90;;;;;;5024107;28;20273;-69
2023/10/14 07:29:34;;;;;;;2.47;1.40;;;15.50;99.90;;;;;;5026045;28;20200;-72
2023/10/14 07:32:01;;;;;;;5.82;2.78;;;14.90;99.90;;;;;;5021564;28;20684;-68
2023/10/14 07:34:30;;;;;;;10.40;3.70;;;15.30;99.90;;;;;;5025804;28;20664;-69
2023/10/14 07:36:57;;;;;;;6.55;2.50;;;14.90;99.90;;;;;;5020833;28;20189;-69
2023/10/14 07:39:29;;;;;;;3.85;1.92;;;14.90;99.90;;;;;;5007030;28;20208;-69
2023/10/14 07:41:56;;;;;;;3.88;1.77;;;14.90;99.90;;;;;;5027302;28;20204;-69
2023/10/14 07:44:24;;;;;;;4.40;1.85;;;15.50;99.90;;;;;;5023716;28;20300;-69
2023/10/14 07:46:54;;;;;;;4.65;2.17;;;15.80;99.90;;;;;;5023276;28;20580;-69
2023/10/14 07:49:21;;;;;;;3.53;1.92;;;15.70;99.90;;;;;;5028600;28;20684;-69
2023/10/14 07:51:52;;;;;;;7.88;2.05;;;14.90;99.90;;;;;;5027436;28;20621;-69
2023/10/14 07:54:21;;;;;;;6.65;1.52;;;15.00;99.90;;;;;;5028956;28;20207;-69
2023/10/14 07:56:48;;;;;;;5.25;1.70;;;15.00;99.90;;;;;;5025557;28;20196;-69
2023/10/14 07:59:16;;;;;;;7.20;2.50;;;15.30;99.90;;;;;;5029594;28;20242;-69
2023/10/14 08:01:45;;;;;;;10.27;2.00;;;15.10;99.90;;;;;;5031756;28;20211;-69
2023/10/14 08:04:15;;;;;;;7.72;1.55;;;15.40;99.90;;;;;;5030272;28;20199;-69
2023/10/14 08:06:43;;;;;;;2.08;1.45;;;15.60;99.90;;;;;;5025841;28;20232;-69
2023/10/14 08:09:28;;;;;;;7.07;1.88;;;16.10;99.90;;;;;;5028112;28;20558;-69
2023/10/14 08:11:56;;;;;;;8.13;1.92;;;16.00;99.90;;;;;;5029131;28;20192;-68
2023/10/14 08:14:23;;;;;;;6.07;2.17;;;15.80;99.90;;;;;;5028133;28;20189;-68
2023/10/14 08:16:50;;;;;;;6.75;2.05;;;15.70;99.90;;;;;;5026795;28;20201;-69
2023/10/14 08:19:21;;;;;;;3.85;1.35;;;15.40;99.90;;;;;;5023639;28;20536;-69
2023/10/14 08:21:52;;;;;;;5.85;1.92;;;15.90;99.90;;;;;;5005852;28;20799;-68
2023/10/14 08:24:20;;;;;;;3.40;1.70;;;16.10;99.90;;;;;;5026998;28;20276;-68
2023/10/14 08:26:49;;;;;;;3.47;1.70;;;16.10;99.90;;;;;;5026091;28;20210;-71
2023/10/14 08:29:19;;;;;;;3.70;1.60;;;16.20;99.90;;;;;;5040336;28;20212;-69
2023/10/14 08:31:51;;;;;;;5.55;1.80;;;16.80;99.90;;;;;;5024220;28;20279;-69
2023/10/14 08:34:19;;;;;;;4.43;1.40;;;17.20;99.90;;;;;;5025518;28;20690;-69
2023/10/14 08:36:46;;;;;;;4.20;1.48;;;17.30;99.90;;;;;;5023046;28;20200;-68
2023/10/14 08:39:14;;;;;;;4.60;1.65;;;17.60;99.90;;;;;;5028170;28;20192;-69
2023/10/14 08:41:46;;;;;;;9.93;1.63;;;17.70;99.90;;;;;;5029077;28;20329;-69
2023/10/14 08:44:18;;;;;;;4.38;2.20;;;17.80;99.90;;;;;;5027660;28;20706;-69
2023/10/14 08:46:49;;;;;;;7.70;1.75;;;18.10;99.90;;;;;;5029371;28;20212;-75
2023/10/14 08:49:41;;;;;;;5.53;1.63;;;22.10;99.90;;;;;;5029032;28;20285;-66
2023/10/14 08:52:16;;;;;;;6.00;1.70;;;26.90;99.90;;;;;;5025303;28;20894;-69
2023/10/14 08:54:51;;;;;;;4.68;1.75;;;28.00;99.90;;;;;;5025786;28;20219;-70
2023/10/14 08:57:18;;;;;;;10.63;2.33;;;28.50;99.90;;;;;;5020999;28;20282;-74
2023/10/14 08:59:49;;;;;;;6.53;2.75;;;29.00;99.90;;;;;;5025391;28;21062;-70
2023/10/14 09:02:16;;;;;;;8.63;2.60;;;27.40;99.90;;;;;;5027928;28;20516;-72
2023/10/14 09:04:45;;;;;;;9.98;2.78;;;27.10;99.90;;;;;;5026694;28;20257;-71
2023/10/14 09:07:16;;;;;;;4.13;2.33;;;26.00;99.90;;;;;;5028794;28;20216;-70
2023/10/14 09:09:44;;;;;;;7.55;2.00;;;27.10;99.90;;;;;;5028394;28;20588;-70
2023/10/14 09:12:12;;;;;;;7.72;2.88;;;27.00;99.90;;;;;;5028380;28;20197;-70
2023/10/14 09:14:41;;;;;;;9.45;2.67;;;27.40;99.90;;;;;;5022842;28;20184;-70
2023/10/14 09:17:09;;;;;;;10.15;2.83;;;27.90;99.90;;;;;;5019981;28;20188;-71
2023/10/14 09:19:46;;;;;;;6.40;2.80;;;27.40;99.90;;;;;;5012060;28;20684;-71
2023/10/14 09:22:27;;;;;;;4.80;2.50;;;28.40;99.90;;;;;;5024140;28;20196;-71
2023/10/14 09:24:59;;;;;;;5.00;2.42;;;29.90;99.90;;;;;;5023739;28;20270;-72
2023/10/14 09:27:30;;;;;;;8.95;2.65;;;30.10;99.90;;;;;;5023623;28;20307;-72
2023/10/14 09:29:58;;;;;;;6.13;2.45;;;30.70;99.90;;;;;;5029068;28;20231;-71
2023/10/14 09:32:25;;;;;;;3.92;2.30;;;28.60;99.90;;;;;;5024748;28;20309;-71
2023/10/14 09:34:55;;;;;;;5.85;2.22;;;26.80;99.90;;;;;;5019899;28;20192;-71
2023/10/14 09:37:22;;;;;;;5.30;2.33;;;27.50;99.90;;;;;;5022914;28;20656;-71
2023/10/14 09:39:57;;;;;;;6.75;2.47;;;29.20;99.90;;;;;;5022718;28;20200;-71
2023/10/14 09:42:29;;;;;;;8.07;2.92;;;31.40;99.90;;;;;;5029087;28;20219;-72
2023/10/14 09:45:06;;;;;;;6.40;2.75;;;32.10;99.90;;;;;;5023499;28;20203;-71
2023/10/14 09:47:34;;;;;;;7.22;2.55;;;28.90;99.90;;;;;;5023681;28;20195;-71
2023/10/14 09:50:05;;;;;;;5.32;2.55;;;30.60;99.90;;;;;;5022768;28;20294;-72
2023/10/14 09:52:33;;;;;;;13.45;3.40;;;32.20;99.90;;;;;;5007408;28;20516;-70
2023/10/14 09:55:02;;;;;;;6.15;2.67;;;32.80;99.90;;;;;;5029248;28;20196;-71
2023/10/14 09:57:30;;;;;;;5.72;2.70;;;30.80;99.90;;;;;;5027700;28;20185;-70
2023/10/14 09:59:57;;;;;;;7.82;3.13;;;27.80;99.90;;;;;;5037912;28;20284;-70
2023/10/14 10:02:25;;;;;;;8.65;3.72;;;29.60;99.90;;;;;;5031602;28;20211;-70
2023/10/14 10:04:53;;;;;;;6.63;2.67;;;29.20;99.90;;;;;;5027088;28;20200;-69
2023/10/14 10:07:26;;;;;;;5.55;2.70;;;27.10;99.90;;;;;;5026448;28;20252;-70
2023/10/14 10:10:15;;;;;;;4.68;2.80;;;27.20;99.90;;;;;;5019754;28;20248;-68
2023/10/14 10:12:45;;;;;;;7.63;3.25;;;24.30;99.90;;;;;;5022829;28;20188;-68
2023/10/14 10:15:19;;;;;;;11.77;2.95;;;21.50;99.90;;;;;;5020405;28;20748;-69
2023/10/14 10:18:15;;;;;;;5.25;2.58;;;20.40;99.90;;;;;;5028541;28;20333;-68
2023/10/14 10:20:56;;;;;;;7.90;2.75;;;22.00;99.90;;;;;;5018729;28;20295;-69
2023/10/14 10:23:27;;;;;;;4.70;2.50;;;21.80;99.90;;;;;;5004836;28;20200;-67
2023/10/14 10:25:55;;;;;;;4.78;3.22;;;21.00;99.90;;;;;;5024398;28;20286;-69
2023/10/14 10:28:26;;;;;;;3.97;2.40;;;21.60;99.90;;;;;;5019394;28;20228;-67
2023/10/14 10:30:57;;;;;;;7.82;3.00;;;24.50;99.90;;;;;;5021491;28;20197;-69
2023/10/14 10:34:02;;;;;;;6.03;2.92;;;26.30;99.90;;;;;;5025643;28;20207;-69
2023/10/14 10:36:32;;;;;;;7.53;2.53;;;29.10;99.90;;;;;;5022106;28;20589;-69
2023/10/14 10:39:19;;;;;;;6.05;2.47;;;29.00;99.90;;;;;;5014102;28;20196;-69
2023/10/14 10:41:51;;;;;;;6.40;2.75;;;29.80;99.90;;;;;;5007822;28;20204;-69
2023/10/14 10:44:19;;;;;;;5.68;3.25;;;28.70;99.90;;;;;;5018998;28;20315;-69
2023/10/14 10:46:48;;;;;;;5.88;2.90;;;29.80;99.90;;;;;;5013370;28;20200;-69
2023/10/14 10:49:37;;;;;;;5.82;2.90;;;29.30;99.90;;;;;;5022519;28;20196;-69
2023/10/14 10:52:07;;;;;;;6.53;2.83;;;30.40;99.90;;;;;;5021346;28;20204;-71
2023/10/14 10:54:35;;;;;;;2.58;2.33;;;29.40;99.90;;;;;;5023907;28;20200;-70
2023/10/14 10:57:02;;;;;;;6.38;2.25;;;29.70;99.90;;;;;;5022810;28;20924;-70
2023/10/14 10:59:37;;;;;;;6.80;2.65;;;29.80;99.90;;;;;;5023250;28;20541;-69
2023/10/14 11:02:08;;;;;;;10.02;2.97;;;29.60;99.90;;;;;;5005214;28;20204;-69
2023/10/14 11:04:36;;;;;;;4.63;2.70;;;27.70;99.90;;;;;;5022678;28;20199;-77
2023/10/14 11:07:06;;;;;;;5.45;2.65;;;27.10;99.90;;;;;;5022534;28;20243;-71
2023/10/14 11:09:39;;;;;;;8.52;2.85;;;27.10;99.90;;;;;;5027104;28;20231;-70
2023/10/14 11:12:14;;;;;;;7.78;3.42;;;27.60;99.90;;;;;;5027689;28;20188;-69
2023/10/14 11:14:49;;;;;;;8.07;3.08;;;27.00;99.90;;;;;;5006808;28;20294;-70
2023/10/14 11:17:22;;;;;;;4.80;2.58;;;26.20;99.90;;;;;;4998700;28;20286;-70
2023/10/14 11:20:05;;;;;;;5.32;2.40;;;26.00;99.90;;;;;;5021838;28;20196;-69
2023/10/14 11:22:41;;;;;;;5.22;2.92;;;26.20;99.90;;;;;;5020287;28;20204;-70
2023/10/14 11:25:18;;;;;;;5.85;2.40;;;26.70;99.90;;;;;;5022093;28;20389;-69
2023/10/14 11:27:54;;;;;;;8.23;3.10;;;26.30;99.90;;;;;;5020466;28;20218;-69
2023/10/14 11:30:25;;;;;;;5.13;2.30;;;26.50;99.90;;;;;;5005020;28;20207;-70
2023/10/14 11:32:58;;;;;;;7.80;2.50;;;24.40;99.90;;;;;;5027045;28;20226;-68
2023/10/14 11:35:30;;;;;;;10.82;3.45;;;22.20;99.90;;;;;;5028732;28;20560;-68
2023/10/14 11:38:02;;;;;;;9.60;2.75;;;20.70;99.90;;;;;;5030836;28;20334;-68
2023/10/14 11:40:49;;;;;;;4.97;2.63;;;22.60;99.90;;;;;;5029473;28;20281;-71
2023/10/14 11:43:17;;;;;;;8.65;2.53;;;24.50;99.90;;;;;;5019252;28;20192;-69
2023/10/14 11:45:48;;;;;;;6.95;2.75;;;24.60;99.90;;;;;;5022886;28;20548;-70
2023/10/14 11:48:22;;;;;;;5.35;2.80;;;24.00;99.90;;;;;;5024930;28;20681;-70
2023/10/14 11:50:58;;;;;;;7.75;2.55;;;22.40;99.90;;;;;;5007285;28;21436;-68
2023/10/14 11:53:38;;;;;;;7.80;2.50;;;21.80;99.90;;;;;;5025317;28;20197;-72
2023/10/14 11:56:18;;;;;;;7.70;2.65;;;22.20;99.90;;;;;;5024855;28;20227;-67
2023/10/14 11:58:49;;;;;;;5.88;2.40;;;22.70;99.90;;;;;;5024836;28;20257;-79
2023/10/14 12:01:33;;;;;;;5.55;2.47;;;22.50;99.90;;;;;;5024929;28;20287;-69
2023/10/14 12:04:05;;;;;;;6.93;2.45;;;22.80;99.90;;;;;;5024758;28;20187;-68
2023/10/14 12:06:41;;;;;;;7.40;3.00;;;22.40;99.90;;;;;;5012121;28;20606;-69
2023/10/14 12:09:19;;;;;;;6.00;2.53;;;22.30;99.90;;;;;;5034476;28;20194;-69
2023/10/14 12:11:48;;;;;;;5.30;2.92;;;22.80;99.90;;;;;;5011445;28;20227;-71
2023/10/14 12:14:18;;;;;;;6.38;2.33;;;22.30;99.90;;;;;;5007666;28;20490;-69
2023/10/14 12:16:51;;;;;;;6.53;2.83;;;22.00;99.90;;;;;;5029215;28;20598;-70
2023/10/14 12:19:21;;;;;;;7.38;3.28;;;22.20;99.90;;;;;;5021913;28;20279;-69
2023/10/14 12:21:49;;;;;;;7.88;2.78;;;22.00;99.90;;;;;;5010885;28;20747;-69
2023/10/14 12:24:18;;;;;;;9.15;3.00;;;21.90;99.90;;;;;;5022898;28;20718;-68
2023/10/14 12:26:45;;;;;;;8.48;2.67;;;22.00;99.90;;;;;;5026500;28;20200;-68
2023/10/14 12:29:12;;;;;;;8.15;2.70;;;22.90;99.90;;;;;;5020276;28;20606;-68
2023/10/14 12:31:46;;;;;;;4.07;2.20;;;23.10;99.90;;;;;;5041683;28;20302;-68
2023/10/14 12:34:19;;;;;;;7.97;2.50;;;21.80;99.90;;;;;;5027060;28;20218;-71
2023/10/14 12:36:52;;;;;;;9.82;2.83;;;20.70;99.90;;;;;;5024919;28;20206;-80
2023/10/14 12:39:33;;;;;;;2.90;2.08;;;20.90;99.90;;;;;;5024385;28;20759;-72
2023/10/14 12:42:03;;;;;;;5.47;2.60;;;19.40;99.90;;;;;;5028712;28;20266;-68
2023/10/14 12:44:35;;;;;;;4.60;2.80;;;19.90;99.90;;;;;;5027041;28;20192;-69
2023/10/14 12:47:10;;;;;;;6.15;2.78;;;20.20;99.90;;;;;;5007879;28;20287;-68
2023/10/14 12:49:40;;;;;;;6.65;2.42;;;20.40;99.90;;;;;;5012410;28;20200;-68
2023/10/14 12:52:14;;;;;;;9.15;2.67;;;20.50;99.90;;;;;;5026057;28;20567;-69
2023/10/14 12:54:42;;;;;;;4.55;2.63;;;19.80;99.90;;;;;;5024877;28;20526;-69
2023/10/14 12:57:09;;;;;;;2.45;2.08;;;19.20;99.90;;;;;;5028220;28;20219;-68
2023/10/14 12:59:42;;;;;;;5.30;2.55;;;18.90;99.90;;;;;;5028823;28;20255;-68
2023/10/14 13:02:09;;;;;;;10.93;3.00;;;18.90;99.90;;;;;;5025666;28;20275;-68
2023/10/14 13:04:42;;;;;;;7.53;2.60;;;18.80;99.90;;;;;;5026942;28;20322;-71
2023/10/14 13:07:10;;;;;;;7.82;2.80;;;18.70;99.90;;;;;;5027090;28;20749;-67
2023/10/14 13:09:38;;;;;;;5.50;2.42;;;18.50;99.90;;;;;;5025517;28;20232;-67
2023/10/14 13:12:16;;;;;;;7.47;2.35;;;18.20;99.90;;;;;;5029866;28;20211;-68
2023/10/14 13:14:44;;;;;;;3.15;2.28;;;18.00;99.90;;;;;;5029055;28;20557;-67
2023/10/14 13:17:12;;;;;;;3.88;2.13;;;18.00;99.90;;;;;;5025011;28;20262;-67
2023/10/14 13:19:40;;;;;;;2.08;1.90;;;18.00;99.90;;;;;;5026825;28;20674;-70
2023/10/14 13:22:13;;;;;;;3.08;2.00;;;18.00;99.90;;;;;;5021032;28;20200;-68
2023/10/14 13:24:41;;;;;;;2.65;1.90;;;17.90;99.90;;;;;;5025326;28;20796;-68
2023/10/14 13:27:08;;;;;;;6.15;2.00;;;18.00;99.90;;;;;;5026959;28;20680;-68
2023/10/14 13:29:35;;;;;;;5.03;1.90;;;18.10;99.90;;;;;;5029118;28;20571;-68
2023/10/14 13:32:03;;;;;;;2.88;1.90;;;18.20;99.90;;;;;;5029086;28;20266;-69
2023/10/14 13:34:32;;;;;;;4.07;2.30;;;18.20;99.90;;;;;;5028358;28;20926;-68
2023/10/14 13:37:00;;;;;;;4.60;2.15;;;18.10;99.90;;;;;;5026017;28;20203;-67
2023/10/14 13:39:35;;;;;;;3.47;2.28;;;18.00;99.90;;;;;;5028208;28;20648;-68
2023/10/14 13:42:07;;;;;;;4.72;2.20;;;17.80;99.90;;;;;;5024236;28;20220;-67